Post Falls, Idaho
Current Conditions -  °F | °C
As of 2:15 PM on Monday 20 Oct 2014 (Local Time) from KCOE Reporting Station
Clear Clear  
Wind Chill: 70°   Ceiling: Unl
Heat Index: 70°   Visibility: 10mi
Dew Point: 43°   Wind: 3mph
Humidity: 38%   Direction: 160°SSE
Pressure: 29.74"   Gusts: NA
Location:  47.71°N, 116.94°W
Report Text: KCOE 202115Z AUTO 16003KT 10SM CLR 21/06 A2974 RMK AO1
Loading
Personal Weather Stations






























Interactive Weather Map
Tropical Storm Tracking
New forecast layout! Learn more

10-Day Weather Forecast

Advertisements
Track Severe Weather on mobile